sensor_id;sensor_type;location;lat;lon;timestamp;temperature;humidity
37412;DHT22;23278;52.110;6.050;2023-04-30T00:01:10;8.00;99.90
37412;DHT22;23278;52.110;6.050;2023-04-30T00:03:36;8.00;99.90
37412;DHT22;23278;52.110;6.050;2023-04-30T00:06:02;7.90;99.90
37412;DHT22;23278;52.110;6.050;2023-04-30T00:08:28;7.90;99.90
37412;DHT22;23278;52.110;6.050;2023-04-30T00:10:54;7.80;99.90
37412;DHT22;23278;52.110;6.050;2023-04-30T00:13:20;7.80;99.90
37412;DHT22;23278;52.110;6.050;2023-04-30T00:15:46;7.70;99.90
37412;DHT22;23278;52.110;6.050;2023-04-30T00:18:12;7.70;99.90
37412;DHT22;23278;52.110;6.050;2023-04-30T00:20:38;7.60;99.90
37412;DHT22;23278;52.110;6.050;2023-04-30T00:23:04;7.60;99.90
37412;DHT22;23278;52.110;6.050;2023-04-30T00:25:30;7.60;99.90
37412;DHT22;23278;52.110;6.050;2023-04-30T00:27:56;7.60;99.90
37412;DHT22;23278;52.110;6.050;2023-04-30T00:30:22;7.50;99.90
37412;DHT22;23278;52.110;6.050;2023-04-30T00:32:48;7.50;99.90
37412;DHT22;23278;52.110;6.050;2023-04-30T00:35:15;7.50;99.90
37412;DHT22;23278;52.110;6.050;2023-04-30T00:37:41;7.40;99.90
37412;DHT22;23278;52.110;6.050;2023-04-30T00:40:07;7.40;99.90
37412;DHT22;23278;52.110;6.050;2023-04-30T00:42:33;7.40;99.90
37412;DHT22;23278;52.110;6.050;2023-04-30T00:44:59;7.30;99.90
37412;DHT22;23278;52.110;6.050;2023-04-30T00:47:25;7.20;99.90
37412;DHT22;23278;52.110;6.050;2023-04-30T00:49:51;7.20;99.90
37412;DHT22;23278;52.110;6.050;2023-04-30T00:52:17;7.20;99.90
37412;DHT22;23278;52.110;6.050;2023-04-30T00:54:43;7.10;99.90
37412;DHT22;23278;52.110;6.050;2023-04-30T00:57:11;7.10;99.90
37412;DHT22;23278;52.110;6.050;2023-04-30T00:59:38;7.10;99.90
37412;DHT22;23278;52.110;6.050;2023-04-30T01:02:04;7.10;99.90
37412;DHT22;23278;52.110;6.050;2023-04-30T01:04:30;7.00;99.90
37412;DHT22;23278;52.110;6.050;2023-04-30T01:06:58;7.00;99.90
37412;DHT22;23278;52.110;6.050;2023-04-30T01:09:25;7.00;99.90
37412;DHT22;23278;52.110;6.050;2023-04-30T01:15:19;6.90;99.90
37412;DHT22;23278;52.110;6.050;2023-04-30T01:18:36;6.90;99.90
37412;DHT22;23278;52.110;6.050;2023-04-30T01:20:53;6.80;99.90
37412;DHT22;23278;52.110;6.050;2023-04-30T01:28:49;6.70;99.90
37412;DHT22;23278;52.110;6.050;2023-04-30T01:31:18;6.60;99.90
37412;DHT22;23278;52.110;6.050;2023-04-30T01:33:44;6.60;99.90
37412;DHT22;23278;52.110;6.050;2023-04-30T01:39:49;6.50;99.90
37412;DHT22;23278;52.110;6.050;2023-04-30T01:42:21;6.50;99.90
37412;DHT22;23278;52.110;6.050;2023-04-30T01:45:11;6.50;99.90
37412;DHT22;23278;52.110;6.050;2023-04-30T01:47:51;6.40;99.90
37412;DHT22;23278;52.110;6.050;2023-04-30T01:53:01;6.30;99.90
37412;DHT22;23278;52.110;6.050;2023-04-30T01:55:40;6.30;99.90
37412;DHT22;23278;52.110;6.050;2023-04-30T01:58:12;6.30;99.90
37412;DHT22;23278;52.110;6.050;2023-04-30T02:00:39;6.20;99.90
37412;DHT22;23278;52.110;6.050;2023-04-30T02:03:06;6.20;99.90
37412;DHT22;23278;52.110;6.050;2023-04-30T02:05:32;6.10;99.90
37412;DHT22;23278;52.110;6.050;2023-04-30T02:07:59;6.10;99.90
37412;DHT22;23278;52.110;6.050;2023-04-30T02:10:26;6.10;99.90
37412;DHT22;23278;52.110;6.050;2023-04-30T02:12:54;6.10;99.90
37412;DHT22;23278;52.110;6.050;2023-04-30T02:15:20;6.00;99.90
37412;DHT22;23278;52.110;6.050;2023-04-30T02:17:46;6.00;99.90
37412;DHT22;23278;52.110;6.050;2023-04-30T02:20:12;5.90;99.90
37412;DHT22;23278;52.110;6.050;2023-04-30T02:22:38;5.90;99.90
37412;DHT22;23278;52.110;6.050;2023-04-30T02:25:04;5.90;99.90
37412;DHT22;23278;52.110;6.050;2023-04-30T02:27:32;5.90;99.90
37412;DHT22;23278;52.110;6.050;2023-04-30T02:29:58;5.80;99.90
37412;DHT22;23278;52.110;6.050;2023-04-30T02:32:24;5.80;99.90
37412;DHT22;23278;52.110;6.050;2023-04-30T02:34:50;5.80;99.90
37412;DHT22;23278;52.110;6.050;2023-04-30T02:37:16;5.80;99.90
37412;DHT22;23278;52.110;6.050;2023-04-30T02:39:42;5.80;99.90
37412;DHT22;23278;52.110;6.050;2023-04-30T02:42:09;5.70;99.90
37412;DHT22;23278;52.110;6.050;2023-04-30T02:44:35;5.70;99.90
37412;DHT22;23278;52.110;6.050;2023-04-30T02:47:00;5.70;99.90
37412;DHT22;23278;52.110;6.050;2023-04-30T02:49:27;5.70;99.90
37412;DHT22;23278;52.110;6.050;2023-04-30T02:51:54;5.70;99.90
37412;DHT22;23278;52.110;6.050;2023-04-30T02:54:20;5.70;99.90
37412;DHT22;23278;52.110;6.050;2023-04-30T02:56:46;5.60;99.90
37412;DHT22;23278;52.110;6.050;2023-04-30T02:59:12;5.60;99.90
37412;DHT22;23278;52.110;6.050;2023-04-30T03:01:39;5.60;99.90
37412;DHT22;23278;52.110;6.050;2023-04-30T03:04:04;5.60;99.90
37412;DHT22;23278;52.110;6.050;2023-04-30T03:06:31;5.60;99.90
37412;DHT22;23278;52.110;6.050;2023-04-30T03:08:58;5.60;99.90
37412;DHT22;23278;52.110;6.050;2023-04-30T03:11:24;5.50;99.90
37412;DHT22;23278;52.110;6.050;2023-04-30T03:13:50;5.50;99.90
37412;DHT22;23278;52.110;6.050;2023-04-30T03:16:20;5.50;99.90
37412;DHT22;23278;52.110;6.050;2023-04-30T03:18:47;5.40;99.90
37412;DHT22;23278;52.110;6.050;2023-04-30T03:21:13;5.40;99.90
37412;DHT22;23278;52.110;6.050;2023-04-30T03:23:39;5.40;99.90
37412;DHT22;23278;52.110;6.050;2023-04-30T03:26:05;5.40;99.90
37412;DHT22;23278;52.110;6.050;2023-04-30T03:28:33;5.30;99.90
37412;DHT22;23278;52.110;6.050;2023-04-30T03:31:00;5.30;99.90
37412;DHT22;23278;52.110;6.050;2023-04-30T03:33:30;5.30;99.90
37412;DHT22;23278;52.110;6.050;2023-04-30T03:35:56;5.30;99.90
37412;DHT22;23278;52.110;6.050;2023-04-30T03:38:22;5.30;99.90
37412;DHT22;23278;52.110;6.050;2023-04-30T03:40:48;5.20;99.90
37412;DHT22;23278;52.110;6.050;2023-04-30T03:43:14;5.20;99.90
37412;DHT22;23278;52.110;6.050;2023-04-30T03:45:40;5.20;99.90
37412;DHT22;23278;52.110;6.050;2023-04-30T03:48:06;5.10;99.90
37412;DHT22;23278;52.110;6.050;2023-04-30T03:50:32;5.10;99.90
37412;DHT22;23278;52.110;6.050;2023-04-30T03:52:58;5.10;99.90
37412;DHT22;23278;52.110;6.050;2023-04-30T03:55:25;5.10;99.90
37412;DHT22;23278;52.110;6.050;2023-04-30T03:57:51;5.00;99.90
37412;DHT22;23278;52.110;6.050;2023-04-30T04:00:17;5.00;99.90
37412;DHT22;23278;52.110;6.050;2023-04-30T04:02:47;5.00;99.90
37412;DHT22;23278;52.110;6.050;2023-04-30T04:05:14;4.90;99.90
37412;DHT22;23278;52.110;6.050;2023-04-30T04:07:40;4.90;99.90
37412;DHT22;23278;52.110;6.050;2023-04-30T04:10:07;4.90;99.90
37412;DHT22;23278;52.110;6.050;2023-04-30T04:12:33;4.90;99.90
37412;DHT22;23278;52.110;6.050;2023-04-30T04:14:59;4.90;99.90
37412;DHT22;23278;52.110;6.050;2023-04-30T04:17:26;4.90;99.90
37412;DHT22;23278;52.110;6.050;2023-04-30T04:19:52;4.80;99.90
37412;DHT22;23278;52.110;6.050;2023-04-30T04:22:18;4.80;99.90
37412;DHT22;23278;52.110;6.050;2023-04-30T04:24:44;4.80;99.90
37412;DHT22;23278;52.110;6.050;2023-04-30T04:27:16;4.80;99.90
37412;DHT22;23278;52.110;6.050;2023-04-30T04:29:43;4.80;99.90
37412;DHT22;23278;52.110;6.050;2023-04-30T04:32:09;4.80;99.90
37412;DHT22;23278;52.110;6.050;2023-04-30T04:34:38;4.80;99.90
37412;DHT22;23278;52.110;6.050;2023-04-30T04:37:05;4.80;99.90
37412;DHT22;23278;52.110;6.050;2023-04-30T04:39:31;4.80;99.90
37412;DHT22;23278;52.110;6.050;2023-04-30T04:41:56;4.80;99.90
37412;DHT22;23278;52.110;6.050;2023-04-30T04:44:23;4.80;99.90
37412;DHT22;23278;52.110;6.050;2023-04-30T04:46:49;4.80;99.90
37412;DHT22;23278;52.110;6.050;2023-04-30T04:49:18;4.80;99.90
37412;DHT22;23278;52.110;6.050;2023-04-30T04:51:45;4.80;99.90
37412;DHT22;23278;52.110;6.050;2023-04-30T04:54:11;4.90;99.90
37412;DHT22;23278;52.110;6.050;2023-04-30T04:56:38;4.90;99.90
37412;DHT22;23278;52.110;6.050;2023-04-30T04:59:04;4.90;99.90
37412;DHT22;23278;52.110;6.050;2023-04-30T05:01:30;5.00;99.90
37412;DHT22;23278;52.110;6.050;2023-04-30T05:03:56;5.00;99.90
37412;DHT22;23278;52.110;6.050;2023-04-30T05:06:22;5.00;99.90
37412;DHT22;23278;52.110;6.050;2023-04-30T05:08:48;5.00;99.90
37412;DHT22;23278;52.110;6.050;2023-04-30T05:11:14;5.00;99.90
37412;DHT22;23278;52.110;6.050;2023-04-30T05:13:40;5.00;99.90
37412;DHT22;23278;52.110;6.050;2023-04-30T05:16:06;5.10;99.90
37412;DHT22;23278;52.110;6.050;2023-04-30T05:18:32;5.10;99.90
37412;DHT22;23278;52.110;6.050;2023-04-30T05:20:58;5.10;99.90
37412;DHT22;23278;52.110;6.050;2023-04-30T05:23:24;5.20;99.90
37412;DHT22;23278;52.110;6.050;2023-04-30T05:25:53;5.20;99.90
37412;DHT22;23278;52.110;6.050;2023-04-30T05:28:20;5.20;99.90
37412;DHT22;23278;52.110;6.050;2023-04-30T05:30:46;5.30;99.90
37412;DHT22;23278;52.110;6.050;2023-04-30T05:33:11;5.40;99.90
37412;DHT22;23278;52.110;6.050;2023-04-30T05:35:37;5.50;99.90
37412;DHT22;23278;52.110;6.050;2023-04-30T05:38:03;5.50;99.90
37412;DHT22;23278;52.110;6.050;2023-04-30T05:40:29;5.60;99.90
37412;DHT22;23278;52.110;6.050;2023-04-30T05:42:55;5.70;99.90
37412;DHT22;23278;52.110;6.050;2023-04-30T05:45:21;5.70;99.90
37412;DHT22;23278;52.110;6.050;2023-04-30T05:47:47;5.80;99.90
37412;DHT22;23278;52.110;6.050;2023-04-30T05:50:13;5.90;99.90
37412;DHT22;23278;52.110;6.050;2023-04-30T05:52:39;6.00;99.90
37412;DHT22;23278;52.110;6.050;2023-04-30T05:55:06;6.10;99.90
37412;DHT22;23278;52.110;6.050;2023-04-30T05:57:32;6.20;99.90
37412;DHT22;23278;52.110;6.050;2023-04-30T05:59:59;6.30;99.90
37412;DHT22;23278;52.110;6.050;2023-04-30T06:02:25;6.40;99.90
37412;DHT22;23278;52.110;6.050;2023-04-30T06:04:51;6.50;99.90
37412;DHT22;23278;52.110;6.050;2023-04-30T06:07:17;6.60;99.90
37412;DHT22;23278;52.110;6.050;2023-04-30T06:09:43;6.70;99.90
37412;DHT22;23278;52.110;6.050;2023-04-30T06:12:09;6.80;99.90
37412;DHT22;23278;52.110;6.050;2023-04-30T06:14:35;7.00;99.90
37412;DHT22;23278;52.110;6.050;2023-04-30T06:17:01;7.00;99.90
37412;DHT22;23278;52.110;6.050;2023-04-30T06:19:27;7.10;99.90
37412;DHT22;23278;52.110;6.050;2023-04-30T06:21:53;7.30;99.90
37412;DHT22;23278;52.110;6.050;2023-04-30T06:24:19;7.40;99.90
37412;DHT22;23278;52.110;6.050;2023-04-30T06:26:45;7.50;99.90
37412;DHT22;23278;52.110;6.050;2023-04-30T06:29:11;7.60;99.90
37412;DHT22;23278;52.110;6.050;2023-04-30T06:31:37;7.70;99.90
37412;DHT22;23278;52.110;6.050;2023-04-30T06:34:03;7.80;99.90
37412;DHT22;23278;52.110;6.050;2023-04-30T06:36:29;7.80;99.90
37412;DHT22;23278;52.110;6.050;2023-04-30T06:38:56;8.00;99.90
37412;DHT22;23278;52.110;6.050;2023-04-30T06:41:22;8.00;99.90
37412;DHT22;23278;52.110;6.050;2023-04-30T06:43:47;8.10;99.90
37412;DHT22;23278;52.110;6.050;2023-04-30T06:46:13;8.20;99.90
37412;DHT22;23278;52.110;6.050;2023-04-30T06:48:39;8.30;99.90
37412;DHT22;23278;52.110;6.050;2023-04-30T06:51:05;8.40;99.90
37412;DHT22;23278;52.110;6.050;2023-04-30T06:53:31;8.50;99.90
37412;DHT22;23278;52.110;6.050;2023-04-30T06:55:57;8.60;99.90
37412;DHT22;23278;52.110;6.050;2023-04-30T06:58:23;8.60;99.90
37412;DHT22;23278;52.110;6.050;2023-04-30T07:00:49;8.70;99.90
37412;DHT22;23278;52.110;6.050;2023-04-30T07:03:15;8.80;99.90
37412;DHT22;23278;52.110;6.050;2023-04-30T07:05:41;8.90;99.90
37412;DHT22;23278;52.110;6.050;2023-04-30T07:08:07;9.00;99.90
37412;DHT22;23278;52.110;6.050;2023-04-30T07:10:33;9.10;99.90
37412;DHT22;23278;52.110;6.050;2023-04-30T07:12:59;9.20;99.90
37412;DHT22;23278;52.110;6.050;2023-04-30T07:15:25;9.30;99.90
37412;DHT22;23278;52.110;6.050;2023-04-30T07:17:51;9.30;99.90
37412;DHT22;23278;52.110;6.050;2023-04-30T07:20:17;9.40;99.90
37412;DHT22;23278;52.110;6.050;2023-04-30T07:22:43;9.50;99.90
37412;DHT22;23278;52.110;6.050;2023-04-30T07:25:11;9.60;99.90
37412;DHT22;23278;52.110;6.050;2023-04-30T07:27:38;9.70;99.90
37412;DHT22;23278;52.110;6.050;2023-04-30T07:30:05;9.80;99.90
37412;DHT22;23278;52.110;6.050;2023-04-30T07:32:34;9.90;99.90
37412;DHT22;23278;52.110;6.050;2023-04-30T07:35:00;10.10;99.90
37412;DHT22;23278;52.110;6.050;2023-04-30T07:37:25;10.10;99.90
37412;DHT22;23278;52.110;6.050;2023-04-30T07:39:51;10.20;99.90
37412;DHT22;23278;52.110;6.050;2023-04-30T07:42:17;10.30;99.90
37412;DHT22;23278;52.110;6.050;2023-04-30T07:44:43;10.40;99.90
37412;DHT22;23278;52.110;6.050;2023-04-30T07:47:09;10.50;99.90
37412;DHT22;23278;52.110;6.050;2023-04-30T07:49:35;10.60;99.90
37412;DHT22;23278;52.110;6.050;2023-04-30T07:52:02;10.70;99.90
37412;DHT22;23278;52.110;6.050;2023-04-30T07:54:28;10.80;99.90
37412;DHT22;23278;52.110;6.050;2023-04-30T07:56:54;10.90;99.90
37412;DHT22;23278;52.110;6.050;2023-04-30T07:59:20;11.00;99.90
37412;DHT22;23278;52.110;6.050;2023-04-30T08:01:46;11.10;99.90
37412;DHT22;23278;52.110;6.050;2023-04-30T08:04:12;11.20;99.90
37412;DHT22;23278;52.110;6.050;2023-04-30T08:06:38;11.40;99.90
37412;DHT22;23278;52.110;6.050;2023-04-30T08:09:04;11.50;99.90
37412;DHT22;23278;52.110;6.050;2023-04-30T08:11:30;11.60;99.90
37412;DHT22;23278;52.110;6.050;2023-04-30T08:13:56;11.80;99.90
37412;DHT22;23278;52.110;6.050;2023-04-30T08:16:22;11.90;99.90
37412;DHT22;23278;52.110;6.050;2023-04-30T08:18:49;12.00;99.60
37412;DHT22;23278;52.110;6.050;2023-04-30T08:21:15;12.10;99.50
37412;DHT22;23278;52.110;6.050;2023-04-30T08:23:42;12.20;99.40
37412;DHT22;23278;52.110;6.050;2023-04-30T08:26:08;12.30;99.10
37412;DHT22;23278;52.110;6.050;2023-04-30T08:28:34;12.50;98.50
37412;DHT22;23278;52.110;6.050;2023-04-30T08:31:01;12.70;98.10
37412;DHT22;23278;52.110;6.050;2023-04-30T08:33:27;12.80;97.90
37412;DHT22;23278;52.110;6.050;2023-04-30T08:35:53;12.90;97.60
37412;DHT22;23278;52.110;6.050;2023-04-30T08:38:19;13.00;97.00
37412;DHT22;23278;52.110;6.050;2023-04-30T08:40:58;13.10;96.60
37412;DHT22;23278;52.110;6.050;2023-04-30T08:43:27;13.20;96.30
37412;DHT22;23278;52.110;6.050;2023-04-30T08:45:53;13.30;96.00
37412;DHT22;23278;52.110;6.050;2023-04-30T08:48:19;13.40;95.70
37412;DHT22;23278;52.110;6.050;2023-04-30T08:50:46;13.50;95.20
37412;DHT22;23278;52.110;6.050;2023-04-30T08:53:12;13.60;94.90
37412;DHT22;23278;52.110;6.050;2023-04-30T08:55:40;13.70;94.60
37412;DHT22;23278;52.110;6.050;2023-04-30T08:58:07;13.80;94.40
37412;DHT22;23278;52.110;6.050;2023-04-30T09:00:37;13.90;94.10
37412;DHT22;23278;52.110;6.050;2023-04-30T09:03:04;14.10;93.70
37412;DHT22;23278;52.110;6.050;2023-04-30T09:05:31;14.40;93.50
37412;DHT22;23278;52.110;6.050;2023-04-30T09:07:57;14.90;92.30
37412;DHT22;23278;52.110;6.050;2023-04-30T09:10:23;15.30;91.60
37412;DHT22;23278;52.110;6.050;2023-04-30T09:13:07;15.70;88.90
37412;DHT22;23278;52.110;6.050;2023-04-30T09:15:35;16.10;85.60
37412;DHT22;23278;52.110;6.050;2023-04-30T09:18:13;16.60;83.70
37412;DHT22;23278;52.110;6.050;2023-04-30T09:20:58;17.10;80.30
37412;DHT22;23278;52.110;6.050;2023-04-30T09:23:26;17.50;76.90
37412;DHT22;23278;52.110;6.050;2023-04-30T09:25:52;17.70;74.60
37412;DHT22;23278;52.110;6.050;2023-04-30T09:28:19;18.10;71.90
37412;DHT22;23278;52.110;6.050;2023-04-30T09:30:50;18.50;71.30
37412;DHT22;23278;52.110;6.050;2023-04-30T09:33:17;19.00;68.30
37412;DHT22;23278;52.110;6.050;2023-04-30T09:35:43;19.40;64.70
37412;DHT22;23278;52.110;6.050;2023-04-30T09:38:28;19.80;63.40
37412;DHT22;23278;52.110;6.050;2023-04-30T09:40:56;20.30;62.20
37412;DHT22;23278;52.110;6.050;2023-04-30T09:43:22;20.80;60.40
37412;DHT22;23278;52.110;6.050;2023-04-30T09:45:49;21.30;57.90
37412;DHT22;23278;52.110;6.050;2023-04-30T09:48:21;21.80;56.90
37412;DHT22;23278;52.110;6.050;2023-04-30T09:50:48;22.20;55.40
37412;DHT22;23278;52.110;6.050;2023-04-30T09:53:15;22.80;53.60
37412;DHT22;23278;52.110;6.050;2023-04-30T09:55:48;23.30;51.10
37412;DHT22;23278;52.110;6.050;2023-04-30T09:58:15;23.70;50.00
37412;DHT22;23278;52.110;6.050;2023-04-30T10:00:44;24.10;48.90
37412;DHT22;23278;52.110;6.050;2023-04-30T10:03:12;24.60;46.30
37412;DHT22;23278;52.110;6.050;2023-04-30T10:05:44;25.00;45.20
37412;DHT22;23278;52.110;6.050;2023-04-30T10:10:45;25.90;44.60
37412;DHT22;23278;52.110;6.050;2023-04-30T10:13:16;26.30;43.60
37412;DHT22;23278;52.110;6.050;2023-04-30T10:15:49;26.70;42.70
37412;DHT22;23278;52.110;6.050;2023-04-30T10:18:25;27.10;42.00
37412;DHT22;23278;52.110;6.050;2023-04-30T10:20:54;27.50;40.60
37412;DHT22;23278;52.110;6.050;2023-04-30T10:23:21;28.00;40.10
37412;DHT22;23278;52.110;6.050;2023-04-30T10:25:47;28.40;39.00
37412;DHT22;23278;52.110;6.050;2023-04-30T10:28:15;28.70;38.30
37412;DHT22;23278;52.110;6.050;2023-04-30T10:30:41;29.00;38.00
37412;DHT22;23278;52.110;6.050;2023-04-30T10:33:31;29.50;37.10
37412;DHT22;23278;52.110;6.050;2023-04-30T10:36:03;30.00;37.00
37412;DHT22;23278;52.110;6.050;2023-04-30T10:38:32;30.60;36.30
37412;DHT22;23278;52.110;6.050;2023-04-30T10:41:00;31.20;35.70
37412;DHT22;23278;52.110;6.050;2023-04-30T10:43:28;31.80;35.50
37412;DHT22;23278;52.110;6.050;2023-04-30T10:45:56;32.40;34.90
37412;DHT22;23278;52.110;6.050;2023-04-30T10:48:23;32.90;34.10
37412;DHT22;23278;52.110;6.050;2023-04-30T10:50:53;33.40;33.70
37412;DHT22;23278;52.110;6.050;2023-04-30T10:53:20;33.70;33.40
37412;DHT22;23278;52.110;6.050;2023-04-30T10:56:00;34.20;33.10
37412;DHT22;23278;52.110;6.050;2023-04-30T10:58:32;34.50;32.70
37412;DHT22;23278;52.110;6.050;2023-04-30T11:01:12;35.00;32.70
37412;DHT22;23278;52.110;6.050;2023-04-30T11:03:40;35.50;32.10
37412;DHT22;23278;52.110;6.050;2023-04-30T11:06:15;35.50;31.90
37412;DHT22;23278;52.110;6.050;2023-04-30T11:08:45;35.70;31.70
37412;DHT22;23278;52.110;6.050;2023-04-30T11:11:16;35.90;31.60
37412;DHT22;23278;52.110;6.050;2023-04-30T11:13:51;36.30;31.00
37412;DHT22;23278;52.110;6.050;2023-04-30T11:16:28;36.60;30.80
37412;DHT22;23278;52.110;6.050;2023-04-30T11:19:05;36.80;30.70
37412;DHT22;23278;52.110;6.050;2023-04-30T11:21:31;37.10;30.40
37412;DHT22;23278;52.110;6.050;2023-04-30T11:24:02;37.20;30.50
37412;DHT22;23278;52.110;6.050;2023-04-30T11:27:03;37.60;30.70
37412;DHT22;23278;52.110;6.050;2023-04-30T11:29:31;38.00;30.00
37412;DHT22;23278;52.110;6.050;2023-04-30T11:31:59;38.60;29.90
37412;DHT22;23278;52.110;6.050;2023-04-30T11:34:26;39.10;29.90
37412;DHT22;23278;52.110;6.050;2023-04-30T11:36:57;39.40;29.50
37412;DHT22;23278;52.110;6.050;2023-04-30T11:39:25;39.70;29.50
37412;DHT22;23278;52.110;6.050;2023-04-30T11:41:53;40.00;29.30
37412;DHT22;23278;52.110;6.050;2023-04-30T11:44:25;40.40;29.30
37412;DHT22;23278;52.110;6.050;2023-04-30T11:46:52;40.70;29.30
37412;DHT22;23278;52.110;6.050;2023-04-30T11:49:19;40.70;29.20
37412;DHT22;23278;52.110;6.050;2023-04-30T11:51:49;40.70;29.20
37412;DHT22;23278;52.110;6.050;2023-04-30T11:54:15;40.80;29.00
37412;DHT22;23278;52.110;6.050;2023-04-30T11:56:46;40.80;28.80
37412;DHT22;23278;52.110;6.050;2023-04-30T11:59:18;41.00;28.90
37412;DHT22;23278;52.110;6.050;2023-04-30T12:01:44;41.40;28.80
37412;DHT22;23278;52.110;6.050;2023-04-30T12:04:10;41.70;28.90
37412;DHT22;23278;52.110;6.050;2023-04-30T12:06:36;41.80;28.50
37412;DHT22;23278;52.110;6.050;2023-04-30T12:09:03;41.50;28.60
37412;DHT22;23278;52.110;6.050;2023-04-30T12:11:33;41.40;28.60
37412;DHT22;23278;52.110;6.050;2023-04-30T12:14:05;41.40;28.40
37412;DHT22;23278;52.110;6.050;2023-04-30T12:16:51;41.40;28.30
37412;DHT22;23278;52.110;6.050;2023-04-30T12:19:19;41.60;28.40
37412;DHT22;23278;52.110;6.050;2023-04-30T12:21:46;42.10;28.20
37412;DHT22;23278;52.110;6.050;2023-04-30T12:24:14;42.70;28.30
37412;DHT22;23278;52.110;6.050;2023-04-30T12:26:41;42.80;28.10
37412;DHT22;23278;52.110;6.050;2023-04-30T12:31:38;42.70;27.90
37412;DHT22;23278;52.110;6.050;2023-04-30T12:34:05;42.90;27.70
37412;DHT22;23278;52.110;6.050;2023-04-30T12:36:32;43.20;27.70
37412;DHT22;23278;52.110;6.050;2023-04-30T12:39:06;43.50;27.70
37412;DHT22;23278;52.110;6.050;2023-04-30T12:41:39;43.90;27.80
37412;DHT22;23278;52.110;6.050;2023-04-30T12:44:20;44.00;27.60
37412;DHT22;23278;52.110;6.050;2023-04-30T12:46:47;43.80;27.60
37412;DHT22;23278;52.110;6.050;2023-04-30T12:49:24;43.70;27.30
37412;DHT22;23278;52.110;6.050;2023-04-30T12:51:50;43.90;27.50
37412;DHT22;23278;52.110;6.050;2023-04-30T12:54:27;44.00;27.30
37412;DHT22;23278;52.110;6.050;2023-04-30T12:57:02;44.50;27.40
37412;DHT22;23278;52.110;6.050;2023-04-30T12:59:30;44.50;27.30
37412;DHT22;23278;52.110;6.050;2023-04-30T13:02:12;44.30;27.40
37412;DHT22;23278;52.110;6.050;2023-04-30T13:04:43;44.60;27.50
37412;DHT22;23278;52.110;6.050;2023-04-30T13:07:09;45.00;27.40
37412;DHT22;23278;52.110;6.050;2023-04-30T13:09:37;45.30;27.20
37412;DHT22;23278;52.110;6.050;2023-04-30T13:12:03;45.30;27.20
37412;DHT22;23278;52.110;6.050;2023-04-30T13:14:32;45.30;27.00
37412;DHT22;23278;52.110;6.050;2023-04-30T13:16:58;45.40;27.10
37412;DHT22;23278;52.110;6.050;2023-04-30T13:19:25;44.40;27.30
37412;DHT22;23278;52.110;6.050;2023-04-30T13:21:51;42.10;27.90
37412;DHT22;23278;52.110;6.050;2023-04-30T13:24:17;39.50;28.40
37412;DHT22;23278;52.110;6.050;2023-04-30T13:26:43;39.20;28.50
37412;DHT22;23278;52.110;6.050;2023-04-30T13:29:10;40.30;28.10
37412;DHT22;23278;52.110;6.050;2023-04-30T13:31:36;41.20;27.70
37412;DHT22;23278;52.110;6.050;2023-04-30T13:34:02;42.00;27.70
37412;DHT22;23278;52.110;6.050;2023-04-30T13:36:28;42.50;27.40
37412;DHT22;23278;52.110;6.050;2023-04-30T13:38:54;40.80;27.90
37412;DHT22;23278;52.110;6.050;2023-04-30T13:41:20;38.70;28.60
37412;DHT22;23278;52.110;6.050;2023-04-30T13:43:47;36.80;29.40
37412;DHT22;23278;52.110;6.050;2023-04-30T13:46:13;35.90;29.60
37412;DHT22;23278;52.110;6.050;2023-04-30T13:48:40;35.50;29.80
37412;DHT22;23278;52.110;6.050;2023-04-30T13:51:07;35.50;29.50
37412;DHT22;23278;52.110;6.050;2023-04-30T13:53:33;35.20;29.50
37412;DHT22;23278;52.110;6.050;2023-04-30T13:56:00;34.50;29.90
37412;DHT22;23278;52.110;6.050;2023-04-30T13:58:27;33.80;30.20
37412;DHT22;23278;52.110;6.050;2023-04-30T14:00:53;35.00;29.70
37412;DHT22;23278;52.110;6.050;2023-04-30T14:03:19;36.80;28.80
37412;DHT22;23278;52.110;6.050;2023-04-30T14:05:45;38.80;28.10
37412;DHT22;23278;52.110;6.050;2023-04-30T14:08:12;39.20;27.90
37412;DHT22;23278;52.110;6.050;2023-04-30T14:10:38;37.40;28.60
37412;DHT22;23278;52.110;6.050;2023-04-30T14:13:04;35.20;29.60
37412;DHT22;23278;52.110;6.050;2023-04-30T14:15:30;33.50;30.20
37412;DHT22;23278;52.110;6.050;2023-04-30T14:17:57;32.30;31.00
37412;DHT22;23278;52.110;6.050;2023-04-30T14:20:25;31.10;31.50
37412;DHT22;23278;52.110;6.050;2023-04-30T14:22:51;30.40;32.00
37412;DHT22;23278;52.110;6.050;2023-04-30T14:25:17;29.90;32.30
37412;DHT22;23278;52.110;6.050;2023-04-30T14:27:43;29.50;32.50
37412;DHT22;23278;52.110;6.050;2023-04-30T14:30:10;29.40;32.90
37412;DHT22;23278;52.110;6.050;2023-04-30T14:32:36;30.00;32.80
37412;DHT22;23278;52.110;6.050;2023-04-30T14:35:02;30.80;32.40
37412;DHT22;23278;52.110;6.050;2023-04-30T14:37:29;30.70;32.40
37412;DHT22;23278;52.110;6.050;2023-04-30T14:39:55;30.30;32.50
37412;DHT22;23278;52.110;6.050;2023-04-30T14:42:21;30.30;32.60
37412;DHT22;23278;52.110;6.050;2023-04-30T14:44:47;31.40;32.00
37412;DHT22;23278;52.110;6.050;2023-04-30T14:47:13;33.50;31.00
37412;DHT22;23278;52.110;6.050;2023-04-30T14:49:39;35.00;30.10
37412;DHT22;23278;52.110;6.050;2023-04-30T14:52:05;35.90;29.70
37412;DHT22;23278;52.110;6.050;2023-04-30T14:54:31;36.50;29.60
37412;DHT22;23278;52.110;6.050;2023-04-30T14:56:57;36.20;29.60
37412;DHT22;23278;52.110;6.050;2023-04-30T14:59:23;35.70;29.90
37412;DHT22;23278;52.110;6.050;2023-04-30T15:01:49;36.60;29.50
37412;DHT22;23278;52.110;6.050;2023-04-30T15:04:15;37.80;28.90
37412;DHT22;23278;52.110;6.050;2023-04-30T15:06:41;38.70;28.50
37412;DHT22;23278;52.110;6.050;2023-04-30T15:09:07;39.00;28.20
37412;DHT22;23278;52.110;6.050;2023-04-30T15:11:33;37.90;28.50
37412;DHT22;23278;52.110;6.050;2023-04-30T15:13:59;35.90;29.30
37412;DHT22;23278;52.110;6.050;2023-04-30T15:16:25;33.90;30.00
37412;DHT22;23278;52.110;6.050;2023-04-30T15:18:51;32.30;30.90
37412;DHT22;23278;52.110;6.050;2023-04-30T15:21:17;31.60;31.40
37412;DHT22;23278;52.110;6.050;2023-04-30T15:23:43;32.50;30.90
37412;DHT22;23278;52.110;6.050;2023-04-30T15:26:10;33.90;30.20
37412;DHT22;23278;52.110;6.050;2023-04-30T15:28:36;35.40;29.60
37412;DHT22;23278;52.110;6.050;2023-04-30T15:31:02;36.30;29.40
37412;DHT22;23278;52.110;6.050;2023-04-30T15:33:31;37.10;29.10
37412;DHT22;23278;52.110;6.050;2023-04-30T15:35:57;37.70;29.00
37412;DHT22;23278;52.110;6.050;2023-04-30T15:38:24;37.70;29.20
37412;DHT22;23278;52.110;6.050;2023-04-30T15:40:49;36.30;29.70
37412;DHT22;23278;52.110;6.050;2023-04-30T15:43:16;34.60;30.30
37412;DHT22;23278;52.110;6.050;2023-04-30T15:45:43;33.00;31.30
37412;DHT22;23278;52.110;6.050;2023-04-30T15:48:10;31.50;32.20
37412;DHT22;23278;52.110;6.050;2023-04-30T15:50:36;30.40;32.90
37412;DHT22;23278;52.110;6.050;2023-04-30T15:53:02;29.70;33.40
37412;DHT22;23278;52.110;6.050;2023-04-30T15:55:28;29.10;34.20
37412;DHT22;23278;52.110;6.050;2023-04-30T15:57:54;28.40;34.50
37412;DHT22;23278;52.110;6.050;2023-04-30T16:00:20;27.70;34.80